Conroe's Hourly Summary for Monday, May 14, 2018
Hour Temp
(f)
RH
(%)
Solar Rad.
(MJ/m2)
Rainfall
(in)
Wind
(mph)
5/14/2018 12:00 AM 72 86 0 0 0.19
5/14/2018 1:00 AM 71 88 0 0 0.08
5/14/2018 2:00 AM 70 90 0 0 0
5/14/2018 3:00 AM 69 92 0 0 0.02
5/14/2018 4:00 AM 68 92 0 0 0.02
5/14/2018 5:00 AM 68 92 0 0 0
5/14/2018 6:00 AM 68 94 0.03 0 0.03
5/14/2018 7:00 AM 69 92 0.32 0 0.01
5/14/2018 8:00 AM 74 76 0.98 0 0.38
5/14/2018 9:00 AM 79 63 1.66 0 1.55
5/14/2018 10:00 AM 79 59 1.14 0 1.27
5/14/2018 11:00 AM 82 50 2.06 0 1.83
5/14/2018 12:00 PM 84 48 2.66 0 2.2
5/14/2018 1:00 PM 85 43 2.77 0 3.46
5/14/2018 2:00 PM 87 39 2.6 0 3.22
5/14/2018 3:00 PM 85 40 1.4 0 2.62
5/14/2018 4:00 PM 85 41 1.76 0 4.62
5/14/2018 5:00 PM 86 36 1.64 0 5.6
5/14/2018 6:00 PM 85 36 0.66 0 4.27
5/14/2018 7:00 PM 82 43 0.07 0 3.44
5/14/2018 8:00 PM 78 52 0 0 3.4
5/14/2018 9:00 PM 75 58 0 0 1.48
5/14/2018 10:00 PM 73 67 0 0 0.39
5/14/2018 11:00 PM 70 73 0 0 0
Data Summary 76 64 19.75 0.00 1.67